Pagrindinis puslapis
METAR-TAF:

METAR-TAF

Oro uostai :

Teller, Aliaska, Jungtinės Amerikos Valstijos

platuma: 65-14-25N, ilguma: 166-20-22W, Aukštis: 90 m

Dabartinis oras

Ataskaita buvo paskelbta 20 minutes, ne 08:56 UTC
Vėjas 8 kt iš Rytų
Temperatūra -1°C
Drėgmė 93%
Slėgis 999 hPa
Matomumas: 14.5 km
Mažai debesys ne aukštis 3200 ft
Apsiniaukę ne aukštis 4300 ft
sniegas

METAR: PATE 040856Z AUTO 10008KT 9SM -SN FEW032 OVC043 M01/M02 A2951 RMK AO2 SLP001 P0000 60000 T10111017 400111039 58025 FZRANO

Laikas: 01:16 (09:16 UTC)


TAF: trūkstamas

Orai ataskaitas ir orų prognozės (METAR, TAF).

turimą stotys yra geltonos ir raudonos taškus žemėlapyje.

Perkelti pele per norėdami pamatyti stoties vardą.

Tada spustelėkite, norėdami matyti oro stebėjimo ir prognozės.

Norėdami pakeisti žemėlapį: spustelėkite ant žalios mygtukų su juodo kryžiaus žemyn,; žalią mygtuką su brūkšneliu, jei norite nutolinti; arba žalių rodyklių gretimoms žemėlapius.


METAR-TAF: